Time;durP1;ratioP1;P1;durP2;ratioP2;P2;SDS_P1;SDS_P2;PMS_P1;PMS_P2;Temp;Humidity;BMP_temperature;BMP_pressure;BME280_temperature;BME280_humidity;BME280_pressure;Samples;Min_cycle;Max_cycle;Signal;HPM_P1;HPM_P2
2022/02/19 00:00:54;;;;;;;9.88;4.55;;;;;;;7.22;43.20;99910.59;5068182;28;20029;-50
2022/02/19 00:03:19;;;;;;;12.52;4.88;;;;;;;6.99;43.44;99917.72;5069093;28;20025;-48
2022/02/19 00:05:45;;;;;;;9.50;4.90;;;;;;;6.87;45.40;99913.81;5068961;28;20075;-50
2022/02/19 00:08:13;;;;;;;9.70;4.55;;;;;;;6.61;44.99;99921.06;5069235;28;20056;-48
2022/02/19 00:10:41;;;;;;;9.55;4.60;;;;;;;6.52;44.53;99911.53;5069471;28;20105;-48
2022/02/19 00:13:07;;;;;;;11.77;5.25;;;;;;;6.63;44.27;99912.97;5069971;28;20021;-51
2022/02/19 00:15:32;;;;;;;16.52;7.25;;;;;;;6.64;44.57;99907.50;5068860;28;20458;-47
2022/02/19 00:17:58;;;;;;;23.13;8.95;;;;;;;6.62;43.71;99908.66;5069523;28;20020;-47
2022/02/19 00:20:23;;;;;;;14.02;6.50;;;;;;;6.67;43.37;99910.81;5069284;28;20028;-51
2022/02/19 00:22:49;;;;;;;17.92;7.28;;;;;;;6.83;43.37;99905.41;5069133;28;20035;-48
2022/02/19 00:25:15;;;;;;;14.52;6.18;;;;;;;6.77;43.92;99906.09;5069040;28;20021;-49
2022/02/19 00:27:40;;;;;;;15.85;6.40;;;;;;;6.53;44.69;99905.25;5067714;28;20070;-52
2022/02/19 00:30:06;;;;;;;14.80;5.82;;;;;;;6.46;44.48;99901.66;5068987;28;20139;-51
2022/02/19 00:32:32;;;;;;;20.40;7.07;;;;;;;6.52;44.69;99894.84;5069147;28;20056;-49
2022/02/19 00:34:58;;;;;;;17.65;6.82;;;;;;;6.12;45.44;99886.09;5069713;28;20032;-49
2022/02/19 00:37:23;;;;;;;22.90;9.85;;;;;;;6.07;46.51;99889.25;5069264;28;20040;-52
2022/02/19 00:39:49;;;;;;;15.30;7.03;;;;;;;5.86;46.90;99877.41;5069079;28;20444;-51
2022/02/19 00:42:14;;;;;;;98.80;43.38;;;;;;;5.75;47.92;99884.84;5069410;28;20028;-48
2022/02/19 00:44:40;;;;;;;19.80;9.48;;;;;;;5.58;50.69;99884.03;5069415;28;20024;-50
2022/02/19 00:47:05;;;;;;;13.85;6.82;;;;;;;5.63;50.20;99879.91;5068745;28;20082;-51
2022/02/19 00:49:31;;;;;;;17.88;7.03;;;;;;;5.48;50.15;99879.78;5068822;28;20025;-50
2022/02/19 00:51:57;;;;;;;18.80;6.60;;;;;;;6.11;47.49;99882.66;5069471;28;20449;-48
2022/02/19 00:54:23;;;;;;;17.08;7.60;;;;;;;5.59;49.86;99883.88;5069251;28;20024;-48
2022/02/19 00:56:48;;;;;;;16.40;6.88;;;;;;;5.19;50.99;99882.13;5068953;28;20476;-47
2022/02/19 00:59:14;;;;;;;15.73;6.57;;;;;;;4.79;51.61;99889.00;5069005;28;20024;-47
2022/02/19 01:01:39;;;;;;;12.63;6.40;;;;;;;4.48;52.16;99894.88;5068959;28;20028;-51
2022/02/19 01:04:05;;;;;;;17.33;6.80;;;;;;;4.20;53.59;99910.88;5068682;28;20146;-48
2022/02/19 01:06:31;;;;;;;15.85;6.70;;;;;;;4.23;52.51;99912.41;5068717;28;20123;-51
2022/02/19 01:08:57;;;;;;;13.18;6.20;;;;;;;4.30;51.50;99908.13;5068940;28;20040;-51
2022/02/19 01:11:22;;;;;;;13.85;6.18;;;;;;;4.24;52.40;99906.94;5069072;28;20230;-48
2022/02/19 01:13:48;;;;;;;13.88;5.95;;;;;;;3.77;52.74;99917.06;5069091;28;20020;-48
2022/02/19 01:16:14;;;;;;;13.95;5.78;;;;;;;3.71;52.32;99915.88;5068547;28;20060;-48
2022/02/19 01:18:39;;;;;;;10.88;5.93;;;;;;;3.84;52.54;99926.84;5067626;28;20101;-51
2022/02/19 01:21:05;;;;;;;11.15;5.55;;;;;;;3.65;53.68;99922.59;5068138;28;20020;-49
2022/02/19 01:23:30;;;;;;;8.88;5.20;;;;;;;3.59;53.02;99919.75;5067618;28;20382;-49
2022/02/19 01:25:56;;;;;;;8.43;4.30;;;;;;;3.73;51.59;99916.56;5068454;28;20024;-50
2022/02/19 01:28:21;;;;;;;7.95;4.22;;;;;;;3.72;51.95;99909.66;5068799;28;20028;-48
2022/02/19 01:30:47;;;;;;;7.85;4.20;;;;;;;3.72;50.64;99907.03;5070868;28;20032;-49
2022/02/19 01:33:12;;;;;;;8.85;4.25;;;;;;;3.48;52.47;99923.47;5071316;28;20025;-47
2022/02/19 01:35:38;;;;;;;10.10;4.47;;;;;;;3.29;53.09;99921.84;5071326;28;20024;-49
2022/02/19 01:38:03;;;;;;;8.85;4.22;;;;;;;3.64;52.51;99917.50;5070932;28;20708;-50
2022/02/19 01:40:29;;;;;;;10.43;4.35;;;;;;;3.73;51.13;99921.81;5069977;28;20024;-47
2022/02/19 01:42:55;;;;;;;9.85;4.70;;;;;;;3.77;52.12;99931.09;5071979;28;20030;-49
2022/02/19 01:45:20;;;;;;;11.00;4.05;;;;;;;3.64;53.55;99939.38;5071481;28;20033;-48
2022/02/19 01:47:46;;;;;;;9.48;4.63;;;;;;;3.68;51.95;99940.72;5071363;28;20029;-48
2022/02/19 01:50:11;;;;;;;8.00;4.38;;;;;;;3.62;52.13;99938.72;5071887;28;20033;-48
2022/02/19 01:52:41;;;;;;;9.63;4.47;;;;;;;3.73;52.38;99945.50;5072227;28;20032;-50
2022/02/19 01:55:07;;;;;;;11.05;4.68;;;;;;;3.60;53.99;99945.09;5071878;28;20410;-49
2022/02/19 01:57:32;;;;;;;9.80;4.60;;;;;;;3.76;53.88;99944.41;5071928;28;20480;-49
2022/02/19 01:59:58;;;;;;;8.07;4.55;;;;;;;3.81;52.46;99940.31;5071764;28;20028;-48
2022/02/19 02:02:23;;;;;;;11.35;4.82;;;;;;;3.84;52.58;99941.81;5071761;28;20376;-48
2022/02/19 02:04:49;;;;;;;10.15;5.00;;;;;;;3.70;52.65;99941.41;5071429;28;20394;-49
2022/02/19 02:07:14;;;;;;;9.80;5.07;;;;;;;3.69;52.23;99937.13;5071194;28;20056;-50
2022/02/19 02:09:40;;;;;;;10.60;4.90;;;;;;;3.64;52.93;99933.31;5071518;28;20036;-48
2022/02/19 02:12:09;;;;;;;9.50;4.93;;;;;;;3.54;53.30;99936.00;5072017;28;20464;-47
2022/02/19 02:14:39;;;;;;;10.80;5.07;;;;;;;3.53;53.77;99937.00;5070501;28;20017;-48
2022/02/19 02:17:04;;;;;;;9.00;4.72;;;;;;;3.66;53.94;99928.72;5071552;28;20082;-51
2022/02/19 02:19:30;;;;;;;16.20;5.50;;;;;;;3.75;53.25;99932.19;5071505;28;20546;-49
2022/02/19 02:21:55;;;;;;;9.30;5.22;;;;;;;3.69;54.11;99926.59;5071795;28;20025;-49
2022/02/19 02:24:21;;;;;;;15.70;5.68;;;;;;;3.91;53.04;99934.94;5071800;28;20435;-48
2022/02/19 02:26:46;;;;;;;11.57;5.25;;;;;;;3.69;52.98;99934.50;5071875;28;20028;-51
2022/02/19 02:29:12;;;;;;;12.48;5.95;;;;;;;3.76;52.93;99933.88;5071944;28;20025;-48
2022/02/19 02:31:37;;;;;;;13.18;5.32;;;;;;;3.63;52.96;99935.09;5072018;28;20480;-47
2022/02/19 02:34:03;;;;;;;13.30;5.88;;;;;;;3.68;53.42;99940.72;5072063;28;20511;-49
2022/02/19 02:36:28;;;;;;;10.80;5.20;;;;;;;3.77;53.48;99936.34;5071735;28;20017;-49
2022/02/19 02:38:54;;;;;;;14.38;5.45;;;;;;;3.85;53.25;99928.50;5071454;28;20031;-47
2022/02/19 02:41:21;;;;;;;13.98;5.30;;;;;;;3.88;52.76;99920.31;5071255;28;20123;-48
2022/02/19 02:43:46;;;;;;;11.75;5.65;;;;;;;3.95;53.32;99919.66;5071570;28;20040;-49
2022/02/19 02:46:12;;;;;;;11.77;4.88;;;;;;;4.04;52.85;99924.00;5071281;28;20033;-48
2022/02/19 02:48:37;;;;;;;15.10;5.63;;;;;;;3.84;53.39;99926.84;5071297;28;20031;-48
2022/02/19 02:51:05;;;;;;;10.75;5.68;;;;;;;3.76;53.04;99932.06;5071863;28;20036;-47
2022/02/19 02:53:30;;;;;;;11.35;5.85;;;;;;;3.57;53.43;99929.63;5071317;28;20473;-50
2022/02/19 02:55:56;;;;;;;11.98;5.70;;;;;;;3.47;54.52;99937.63;5071219;28;20039;-48
2022/02/19 02:58:21;;;;;;;12.52;5.45;;;;;;;3.45;53.49;99944.84;5071179;28;20028;-50
2022/02/19 03:00:47;;;;;;;12.70;5.55;;;;;;;3.38;53.82;99952.50;5069697;28;20039;-49
2022/02/19 03:03:12;;;;;;;11.10;5.60;;;;;;;3.32;53.68;99955.75;5071165;28;20035;-52
2022/02/19 03:05:38;;;;;;;13.88;5.53;;;;;;;3.36;53.41;99961.53;5071017;28;20381;-50
2022/02/19 03:08:04;;;;;;;10.02;5.18;;;;;;;3.28;53.48;99965.72;5070976;28;20066;-52
2022/02/19 03:10:29;;;;;;;10.25;4.88;;;;;;;3.46;53.98;99964.88;5071175;28;20104;-48
2022/02/19 03:12:55;;;;;;;11.30;5.18;;;;;;;3.30;53.60;99941.91;5071302;28;20087;-50
2022/02/19 03:15:21;;;;;;;9.95;5.07;;;;;;;3.75;54.09;99961.16;5070842;28;20028;-49
2022/02/19 03:17:47;;;;;;;9.18;5.00;;;;;;;3.74;54.42;99962.97;5070682;28;20028;-49
2022/02/19 03:20:19;;;;;;;9.90;5.10;;;;;;;3.67;52.20;99959.28;5070912;28;20048;-48
2022/02/19 03:22:45;;;;;;;9.73;5.00;;;;;;;3.65;52.97;99956.00;5070399;28;20025;-48
2022/02/19 03:25:12;;;;;;;9.02;4.70;;;;;;;3.36;53.91;99962.34;5070678;28;20059;-48
2022/02/19 03:27:38;;;;;;;8.85;4.45;;;;;;;3.32;54.31;99961.00;5070511;28;20071;-48
2022/02/19 03:30:04;;;;;;;7.57;4.50;;;;;;;3.20;53.06;99917.47;5070639;28;20052;-47
2022/02/19 03:32:29;;;;;;;11.07;4.78;;;;;;;3.51;52.85;99957.38;5071218;28;20034;-48
2022/02/19 03:34:55;;;;;;;8.20;4.65;;;;;;;3.39;54.03;99951.53;5070811;28;20016;-49
2022/02/19 03:37:20;;;;;;;9.45;5.32;;;;;;;3.35;54.06;99950.19;5070736;28;20032;-48
2022/02/19 03:39:46;;;;;;;9.25;4.80;;;;;;;3.16;54.57;99956.44;5070603;28;20086;-48
2022/02/19 03:42:11;;;;;;;9.75;4.50;;;;;;;3.14;55.55;99953.09;5070521;28;20161;-49
2022/02/19 03:44:37;;;;;;;9.20;4.72;;;;;;;3.19;53.91;99950.03;5070567;28;20106;-50
2022/02/19 03:47:03;;;;;;;11.18;4.55;;;;;;;3.13;54.41;99959.34;5070569;28;20037;-50
2022/02/19 03:49:28;;;;;;;8.23;4.55;;;;;;;3.35;55.24;99951.97;5070035;28;20491;-50
2022/02/19 03:51:53;;;;;;;11.52;4.60;;;;;;;3.17;54.42;99946.72;5070014;28;20466;-48
2022/02/19 03:54:19;;;;;;;9.55;4.72;;;;;;;3.15;55.26;99967.91;5070634;28;20025;-48
2022/02/19 03:56:44;;;;;;;9.15;4.43;;;;;;;3.14;55.24;99963.63;5070283;28;20025;-49
2022/02/19 03:59:14;;;;;;;9.93;4.80;;;;;;;3.22;54.78;99962.84;5070356;28;20020;-47
2022/02/19 04:01:41;;;;;;;15.38;4.85;;;;;;;3.30;54.99;99968.22;5070234;28;20031;-51
2022/02/19 04:04:06;;;;;;;7.88;4.07;;;;;;;3.30;54.21;99969.03;5070219;28;20115;-51
2022/02/19 04:06:32;;;;;;;9.05;4.50;;;;;;;3.38;55.47;99976.16;5070078;28;20115;-50
2022/02/19 04:08:57;;;;;;;10.57;5.00;;;;;;;3.28;54.19;99962.28;5070184;28;20029;-48
2022/02/19 04:11:23;;;;;;;8.07;4.60;;;;;;;3.26;54.36;99962.44;5070259;28;20430;-49
2022/02/19 04:13:48;;;;;;;8.30;4.60;;;;;;;3.20;55.12;99970.06;5070742;28;20028;-47
2022/02/19 04:16:13;;;;;;;8.45;4.60;;;;;;;3.08;54.55;99975.56;5070264;28;20055;-51
2022/02/19 04:18:39;;;;;;;9.40;4.53;;;;;;;3.16;56.30;99971.34;5070061;28;20035;-48
2022/02/19 04:21:04;;;;;;;10.77;4.93;;;;;;;3.08;55.36;99972.09;5069458;28;20043;-50
2022/02/19 04:23:30;;;;;;;8.50;4.85;;;;;;;3.10;55.67;99964.91;5069811;28;20020;-48
2022/02/19 04:25:55;;;;;;;10.32;5.13;;;;;;;2.82;57.02;99969.38;5070092;28;20024;-48
2022/02/19 04:28:21;;;;;;;15.93;5.57;;;;;;;2.84;56.27;99975.34;5070421;28;20493;-51
2022/02/19 04:30:47;;;;;;;11.35;5.65;;;;;;;2.86;56.89;99978.63;5069017;28;20031;-48
2022/02/19 04:33:13;;;;;;;9.35;5.43;;;;;;;2.93;56.69;99956.00;5070278;28;20416;-50
2022/02/19 04:35:39;;;;;;;9.98;4.90;;;;;;;2.65;56.05;99963.13;5069914;28;20567;-50
2022/02/19 04:38:05;;;;;;;13.02;5.05;;;;;;;2.92;55.76;99959.63;5069989;28;20127;-51
2022/02/19 04:40:30;;;;;;;10.30;5.13;;;;;;;2.85;56.95;99971.72;5070017;28;20164;-52
2022/02/19 04:42:56;;;;;;;9.38;5.03;;;;;;;2.64;57.06;99967.53;5069722;28;20035;-50
2022/02/19 04:45:21;;;;;;;11.40;5.10;;;;;;;2.54;57.64;99958.88;5069986;28;20032;-49
2022/02/19 04:47:47;;;;;;;11.30;5.20;;;;;;;2.41;59.02;99961.03;5069747;28;20021;-48
2022/02/19 04:50:12;;;;;;;7.95;4.65;;;;;;;2.66;58.80;99973.47;5070047;28;20016;-49
2022/02/19 04:52:38;;;;;;;8.48;4.80;;;;;;;2.49;58.19;99974.25;5070017;28;20487;-51
2022/02/19 04:55:04;;;;;;;12.45;5.53;;;;;;;2.34;60.06;99964.25;5069755;28;20044;-49
2022/02/19 04:57:30;;;;;;;11.40;6.03;;;;;;;2.52;58.26;99963.47;5069493;28;20039;-49
2022/02/19 04:59:55;;;;;;;14.23;5.60;;;;;;;2.46;57.96;99972.75;5069665;28;20094;-49
2022/02/19 05:02:21;;;;;;;10.63;5.78;;;;;;;2.54;59.29;99967.59;5071047;28;20021;-51
2022/02/19 05:04:47;;;;;;;13.02;5.70;;;;;;;2.68;58.60;99973.31;5073385;28;20039;-51
2022/02/19 05:07:12;;;;;;;14.52;6.32;;;;;;;2.73;58.03;99982.44;5073361;28;20098;-51
2022/02/19 05:09:37;;;;;;;13.02;6.35;;;;;;;2.87;57.66;99978.47;5073327;28;20545;-52
2022/02/19 05:12:04;;;;;;;14.23;6.50;;;;;;;2.88;58.28;99984.56;5071015;28;20031;-50
2022/02/19 05:14:30;;;;;;;12.02;5.30;;;;;;;2.89;57.12;99986.22;5054808;28;20070;-49
2022/02/19 05:16:56;;;;;;;11.73;5.72;;;;;;;2.87;57.18;99988.16;5073005;28;20465;-50
2022/02/19 05:19:21;;;;;;;11.48;5.90;;;;;;;2.83;56.74;99992.06;5072970;28;20029;-51
2022/02/19 05:21:47;;;;;;;12.18;5.65;;;;;;;2.92;58.16;99989.38;5073113;28;20119;-49
2022/02/19 05:24:12;;;;;;;15.43;5.82;;;;;;;3.01;57.54;100000.81;5072892;28;20432;-48
2022/02/19 05:26:38;;;;;;;16.75;6.30;;;;;;;2.99;56.22;100000.13;5072919;28;20033;-50
2022/02/19 05:29:04;;;;;;;12.07;5.43;;;;;;;3.15;56.08;99996.03;5073034;28;20449;-52
2022/02/19 05:31:29;;;;;;;11.18;5.60;;;;;;;3.05;56.70;99996.09;5073089;28;20021;-48
2022/02/19 05:33:55;;;;;;;12.55;5.20;;;;;;;3.37;55.21;100002.63;5072561;28;20102;-48
2022/02/19 05:36:20;;;;;;;10.75;5.03;;;;;;;3.64;53.85;99993.84;5071584;28;20032;-48
2022/02/19 05:38:45;;;;;;;9.60;4.70;;;;;;;3.75;53.16;99995.38;5072455;28;20542;-52
2022/02/19 05:41:11;;;;;;;11.18;4.95;;;;;;;4.06;52.56;99998.41;5072657;28;20048;-50
2022/02/19 05:43:36;;;;;;;13.38;5.22;;;;;;;4.33;51.81;99997.41;5072408;28;20097;-48
2022/02/19 05:46:02;;;;;;;12.77;6.00;;;;;;;5.17;50.53;100005.47;5072373;28;20020;-52
2022/02/19 05:48:28;;;;;;;12.52;6.60;;;;;;;5.71;48.78;100031.41;5072854;28;20056;-50
2022/02/19 05:50:54;;;;;;;11.75;5.97;;;;;;;5.09;49.57;100014.19;5072593;28;20055;-50
2022/02/19 05:53:19;;;;;;;12.38;5.57;;;;;;;5.35;48.23;100027.28;5072679;28;20238;-50
2022/02/19 05:55:45;;;;;;;49.83;24.00;;;;;;;5.40;49.48;100022.31;5072429;28;20024;-50
2022/02/19 05:58:11;;;;;;;25.15;12.85;;;;;;;5.77;49.66;100025.47;5072747;28;20373;-50
2022/02/19 06:00:37;;;;;;;12.73;5.72;;;;;;;6.00;48.66;99991.34;5072623;28;20119;-51
2022/02/19 06:03:02;;;;;;;22.83;6.80;;;;;;;7.16;46.57;100027.78;5072272;28;20017;-52
2022/02/19 06:05:27;;;;;;;34.20;17.63;;;;;;;7.77;44.38;100013.78;5072051;28;20083;-49
2022/02/19 06:07:53;;;;;;;16.35;8.93;;;;;;;7.64;43.93;100024.97;5070813;28;20025;-48
2022/02/19 06:10:18;;;;;;;13.55;6.20;;;;;;;7.65;43.79;100029.25;5072183;28;20074;-47
2022/02/19 06:12:44;;;;;;;16.48;7.15;;;;;;;7.62;43.45;100035.72;5072431;28;20024;-51
2022/02/19 06:15:09;;;;;;;15.45;7.18;;;;;;;8.36;50.89;100039.56;5070923;28;20530;-48
2022/02/19 06:17:35;;;;;;;25.42;10.35;;;;;;;9.62;51.75;100037.63;5070861;28;20012;-50
2022/02/19 06:20:00;;;;;;;44.92;25.45;;;;;;;10.23;40.43;100029.13;5071268;28;20052;-49
2022/02/19 06:22:26;;;;;;;18.23;9.00;;;;;;;9.93;41.90;100029.31;5071674;28;20025;-49
2022/02/19 06:24:51;;;;;;;17.27;7.78;;;;;;;9.75;41.56;100040.41;5070737;28;20028;-49
2022/02/19 06:27:17;;;;;;;17.23;8.25;;;;;;;9.39;41.57;100045.78;5070523;28;20055;-49
2022/02/19 06:29:42;;;;;;;17.48;7.88;;;;;;;10.03;46.35;100044.13;5071211;28;20020;-51
2022/02/19 06:32:09;;;;;;;32.45;17.35;;;;;;;10.28;39.67;100048.00;5069903;28;20496;-49
2022/02/19 06:34:35;;;;;;;20.63;9.23;;;;;;;11.45;43.11;100048.97;5062880;28;20032;-51
2022/02/19 06:37:00;;;;;;;14.63;7.53;;;;;;;11.44;37.33;100043.84;5055167;28;20021;-49
2022/02/19 06:39:26;;;;;;;14.63;7.80;;;;;;;10.59;38.44;100046.78;5050787;28;20568;-51
2022/02/19 06:41:52;;;;;;;16.42;8.10;;;;;;;10.35;38.19;100050.72;5050754;28;20044;-52
2022/02/19 06:44:17;;;;;;;27.92;14.75;;;;;;;10.15;38.12;100062.03;5050863;28;20017;-52
2022/02/19 06:46:42;;;;;;;22.45;12.13;;;;;;;10.06;38.46;100059.69;5050893;28;20035;-48
2022/02/19 06:49:08;;;;;;;16.20;7.82;;;;;;;11.08;37.04;100058.28;5050794;28;20485;-50
2022/02/19 06:51:34;;;;;;;16.35;7.45;;;;;;;11.42;35.50;100061.88;5050703;28;20029;-48
2022/02/19 06:54:00;;;;;;;18.20;7.88;;;;;;;11.60;34.99;100062.13;5050583;28;20020;-48
2022/02/19 06:56:26;;;;;;;13.13;7.47;;;;;;;11.47;36.06;100062.91;5050518;28;20079;-49
2022/02/19 06:58:52;;;;;;;13.50;7.55;;;;;;;11.18;35.65;100058.75;5050483;28;20021;-51
2022/02/19 07:01:17;;;;;;;16.42;7.22;;;;;;;11.25;35.49;100054.25;5050460;28;20487;-51
2022/02/19 07:03:43;;;;;;;15.27;7.63;;;;;;;11.46;35.35;100047.13;5050690;28;20106;-50
2022/02/19 07:06:08;;;;;;;13.85;6.95;;;;;;;11.48;34.68;100063.72;5049972;28;20677;-51
2022/02/19 07:08:34;;;;;;;15.75;7.35;;;;;;;11.77;35.00;100061.75;5050090;28;20409;-51
2022/02/19 07:10:59;;;;;;;13.50;7.30;;;;;;;11.72;34.93;100047.16;5060379;28;20107;-50
2022/02/19 07:13:25;;;;;;;17.38;7.95;;;;;;;12.07;35.34;100044.34;5070353;28;20024;-50
2022/02/19 07:15:50;;;;;;;28.42;16.55;;;;;;;12.07;34.29;100043.50;5070456;28;20047;-48
2022/02/19 07:18:16;;;;;;;18.75;8.00;;;;;;;12.05;34.52;100029.56;5068832;28;20036;-51
2022/02/19 07:20:41;;;;;;;13.45;7.80;;;;;;;12.03;34.52;100024.47;5070399;28;20032;-49
2022/02/19 07:23:07;;;;;;;68.95;33.08;;;;;;;12.18;33.58;100020.75;5069786;28;20028;-52
2022/02/19 07:25:32;;;;;;;15.05;7.82;;;;;;;12.37;32.73;100019.06;5067631;28;20027;-51
2022/02/19 07:27:58;;;;;;;15.60;6.60;;;;;;;12.56;32.54;100020.06;5069971;28;20025;-50
2022/02/19 07:30:23;;;;;;;11.82;6.68;;;;;;;12.79;32.36;100023.03;5069655;28;20055;-51
2022/02/19 07:32:51;;;;;;;13.05;7.22;;;;;;;12.77;32.34;100022.44;5069521;28;20032;-50
2022/02/19 07:35:17;;;;;;;16.20;7.32;;;;;;;12.51;33.53;100016.16;5069653;28;20051;-50
2022/02/19 07:37:42;;;;;;;12.27;6.78;;;;;;;12.52;33.15;100025.78;5068999;28;20461;-49
2022/02/19 07:40:08;;;;;;;12.00;6.95;;;;;;;12.55;32.35;100037.13;5069149;28;20017;-48
2022/02/19 07:42:34;;;;;;;14.30;6.95;;;;;;;12.48;32.58;100043.25;5068699;28;20028;-49
2022/02/19 07:44:59;;;;;;;15.82;7.07;;;;;;;12.38;33.38;100053.56;5068486;28;20028;-51
2022/02/19 07:47:26;;;;;;;15.45;7.05;;;;;;;12.79;33.50;100057.75;5068267;28;20063;-49
2022/02/19 07:58:19;;;;;;;15.85;7.32;;;;;;;13.72;31.26;100063.72;5066543;28;20027;-51
2022/02/19 08:01:03;;;;;;;;;;;;;;;13.52;31.17;100064.69;5066991;28;20035;-48
2022/02/19 08:03:29;;;;;;;17.92;8.50;;;;;;;13.61;31.54;100071.41;5067258;28;19912;-51
2022/02/19 08:05:55;;;;;;;16.35;8.85;;;;;;;13.68;30.58;100077.53;5066871;28;20072;-51
2022/02/19 08:08:21;;;;;;;17.85;9.05;;;;;;;13.84;30.53;100078.03;5067164;28;20086;-51
2022/02/19 08:10:46;;;;;;;16.88;9.65;;;;;;;14.02;30.69;100077.31;5068396;28;20028;-51
2022/02/19 08:13:13;;;;;;;16.27;8.23;;;;;;;13.92;30.98;100085.81;5068522;28;20103;-49
2022/02/19 08:15:38;;;;;;;16.02;7.57;;;;;;;13.95;30.89;100077.34;5069131;28;20013;-47
2022/02/19 08:18:05;;;;;;;15.43;7.82;;;;;;;14.43;29.69;100075.91;5069076;28;20031;-48
2022/02/19 08:20:31;;;;;;;13.98;7.60;;;;;;;15.28;29.95;100074.38;5070606;28;20021;-37
2022/02/19 08:22:59;;;;;;;15.73;7.45;;;;;;;15.23;28.56;100081.25;5069863;28;20499;-38
2022/02/19 08:25:25;;;;;;;15.27;8.40;;;;;;;15.02;28.86;100058.41;5068100;28;20131;-39
2022/02/19 08:27:51;;;;;;;15.30;8.07;;;;;;;14.56;29.09;100058.91;5068397;28;20317;-37
2022/02/19 08:30:16;;;;;;;15.68;8.50;;;;;;;14.38;29.02;100068.53;5067370;28;20028;-37
2022/02/19 08:32:42;;;;;;;16.73;8.07;;;;;;;13.83;30.63;100066.53;5066215;28;20035;-38
2022/02/19 08:35:07;;;;;;;16.90;8.05;;;;;;;13.80;30.02;100068.81;5069406;28;20472;-38
2022/02/19 08:37:33;;;;;;;18.38;9.02;;;;;;;13.80;30.37;100069.66;5070837;28;20541;-39
2022/02/19 08:39:59;;;;;;;19.65;9.43;;;;;;;13.67;30.25;100062.53;5072553;28;20024;-38
2022/02/19 08:42:25;;;;;;;16.17;7.22;;;;;;;14.10;30.19;100062.84;5073020;28;20024;-38
2022/02/19 08:44:50;;;;;;;17.15;6.82;;;;;;;14.53;29.69;100062.03;5072818;28;20028;-38
2022/02/19 08:47:15;;;;;;;11.52;6.57;;;;;;;14.52;29.35;100055.84;5072693;28;20488;-38
2022/02/19 08:49:41;;;;;;;12.88;6.20;;;;;;;14.49;28.48;100061.66;5073074;28;20499;-38
2022/02/19 08:52:07;;;;;;;14.55;5.78;;;;;;;15.49;46.09;100068.53;5072572;28;20432;-39
2022/02/19 08:54:34;;;;;;;37.47;6.72;;;;;;;17.96;40.40;100066.63;5072709;28;20019;-38
2022/02/19 08:56:59;;;;;;;41.08;6.63;;;;;;;19.43;33.64;100058.06;5074144;28;20059;-39
2022/02/19 08:59:25;;;;;;;20.95;6.25;;;;;;;20.31;28.77;100055.09;5073956;28;20020;-39
2022/02/19 09:01:50;;;;;;;10.02;5.30;;;;;;;19.72;23.31;100060.53;5071606;28;20020;-38
2022/02/19 09:04:15;;;;;;;7.78;4.80;;;;;;;17.91;24.44;100059.25;5072060;28;20024;-38
2022/02/19 09:06:41;;;;;;;9.15;4.93;;;;;;;16.77;25.92;100052.81;5073374;28;20060;-38
2022/02/19 09:09:08;;;;;;;10.73;5.00;;;;;;;16.56;26.01;100050.72;5071674;28;20043;-38
2022/02/19 09:11:34;;;;;;;9.13;5.03;;;;;;;17.29;25.24;100054.66;5071549;28;20029;-39
2022/02/19 09:13:59;;;;;;;10.70;5.30;;;;;;;16.26;26.11;100050.84;5071422;28;20135;-39
2022/02/19 09:16:26;;;;;;;9.55;5.30;;;;;;;15.56;26.21;100053.16;5071390;28;20541;-37
2022/02/19 09:18:52;;;;;;;8.95;4.90;;;;;;;16.19;26.27;100059.84;5072702;28;20372;-38
2022/02/19 09:21:17;;;;;;;10.48;4.65;;;;;;;16.52;25.45;100061.09;5072830;28;20155;-39
2022/02/19 09:23:43;;;;;;;8.55;5.20;;;;;;;15.97;25.97;100062.28;5072326;28;20025;-38
2022/02/19 09:26:08;;;;;;;9.30;4.80;;;;;;;15.60;26.70;100054.34;5072570;28;20412;-39
2022/02/19 09:28:33;;;;;;;11.57;6.00;;;;;;;16.36;26.12;100043.84;5070950;28;20036;-38
2022/02/19 09:30:59;;;;;;;12.35;6.00;;;;;;;15.71;26.66;100044.69;5068092;28;20032;-39
2022/02/19 09:33:25;;;;;;;12.25;6.35;;;;;;;15.08;27.11;100047.81;5071298;28;20061;-39
2022/02/19 09:35:50;;;;;;;11.90;5.70;;;;;;;15.55;27.74;100040.78;5070001;28;20072;-38
2022/02/19 09:38:17;;;;;;;10.15;5.18;;;;;;;15.83;25.88;100045.53;5070275;28;20039;-39
2022/02/19 09:40:42;;;;;;;11.07;5.78;;;;;;;15.44;27.18;100034.34;5070294;28;20016;-39
2022/02/19 09:43:07;;;;;;;13.50;5.50;;;;;;;14.65;27.61;100054.91;5071344;28;20022;-39
2022/02/19 09:45:33;;;;;;;11.18;5.88;;;;;;;16.03;26.36;100047.13;5071697;28;20028;-38
2022/02/19 09:47:58;;;;;;;12.15;6.13;;;;;;;16.13;26.20;100043.84;5070574;28;20408;-40
2022/02/19 09:50:27;;;;;;;81.90;39.92;;;;;;;15.87;26.14;100039.72;5071315;28;20024;-39
2022/02/19 09:52:52;;;;;;;14.60;6.88;;;;;;;15.73;26.75;100033.72;5070983;28;20024;-38
2022/02/19 09:55:18;;;;;;;12.00;5.80;;;;;;;16.66;25.56;100040.22;5071486;28;20016;-39
2022/02/19 09:57:43;;;;;;;12.30;6.30;;;;;;;16.04;25.91;100029.94;5071898;28;20051;-38
2022/02/19 10:00:09;;;;;;;13.43;6.40;;;;;;;15.87;25.89;100037.06;5071272;28;20033;-38
2022/02/19 10:02:35;;;;;;;10.57;5.88;;;;;;;15.83;26.60;100044.75;5071583;28;20077;-38
2022/02/19 10:05:14;;;;;;;115.15;59.80;;;;;;;16.21;25.14;100035.44;5071686;28;20029;-38
2022/02/19 10:07:41;;;;;;;11.30;6.75;;;;;;;15.76;26.43;100035.97;5071474;28;20431;-38
2022/02/19 10:10:07;;;;;;;16.70;6.97;;;;;;;14.79;27.12;100026.97;5071796;28;20020;-38
2022/02/19 10:12:51;;;;;;;11.15;6.45;;;;;;;15.43;26.66;100027.34;5071898;28;20036;-37
2022/02/19 10:15:16;;;;;;;14.13;6.63;;;;;;;15.57;26.85;100021.78;5070997;28;20074;-42
2022/02/19 10:17:41;;;;;;;15.70;6.95;;;;;;;15.03;27.12;100019.03;5070630;28;20028;-38
2022/02/19 10:20:07;;;;;;;10.32;6.72;;;;;;;14.91;27.44;100015.47;5071337;28;20396;-38
2022/02/19 10:22:38;;;;;;;10.60;7.10;;;;;;;15.78;26.78;100012.41;5071557;28;20021;-39
2022/02/19 10:25:06;;;;;;;14.85;7.10;;;;;;;15.45;26.56;100009.16;5071658;28;20464;-38
2022/02/19 10:27:44;;;;;;;16.13;6.82;;;;;;;15.08;26.77;99995.06;5071528;28;20020;-38
2022/02/19 10:30:10;;;;;;;13.40;6.55;;;;;;;15.50;26.72;100002.28;5070644;28;20119;-38
2022/02/19 10:32:45;;;;;;;11.15;5.63;;;;;;;15.90;26.76;99994.47;5071210;28;20027;-39
2022/02/19 10:35:11;;;;;;;12.65;6.07;;;;;;;15.16;26.84;99994.72;5071432;28;20017;-37
2022/02/19 10:37:47;;;;;;;14.20;6.43;;;;;;;15.04;27.27;99991.16;5071291;28;20333;-38
2022/02/19 10:40:43;;;;;;;18.77;7.28;;;;;;;15.40;27.10;99984.91;5070867;28;20040;-39
2022/02/19 10:43:20;;;;;;;14.57;7.07;;;;;;;14.65;27.81;99988.78;5069624;28;20032;-38
2022/02/19 10:45:56;;;;;;;12.60;6.65;;;;;;;14.34;28.28;99986.22;5070989;28;20553;-37
2022/02/19 10:48:23;;;;;;;13.55;6.35;;;;;;;15.30;27.78;99983.81;5070850;28;20020;-38
2022/02/19 10:50:48;;;;;;;15.93;5.90;;;;;;;15.24;27.75;99975.63;5071069;28;20024;-37
2022/02/19 10:53:26;;;;;;;13.48;6.07;;;;;;;14.91;27.90;99976.09;5053362;28;20024;-39
2022/02/19 10:55:53;;;;;;;10.10;5.55;;;;;;;15.30;27.55;99970.41;5070881;28;20388;-39
2022/02/19 10:58:19;;;;;;;15.18;7.97;;;;;;;15.75;26.43;99964.59;5070790;28;20020;-39
2022/02/19 11:00:47;;;;;;;13.15;6.57;;;;;;;15.11;27.45;99964.28;5070503;28;20040;-39
2022/02/19 11:03:13;;;;;;;11.18;6.20;;;;;;;14.96;27.78;99952.09;5070874;28;20511;-39
2022/02/19 11:05:38;;;;;;;15.65;7.35;;;;;;;16.09;26.53;99948.69;5069967;28;20111;-39
2022/02/19 11:08:04;;;;;;;12.40;6.30;;;;;;;16.20;25.74;99943.34;5070605;28;20440;-38
2022/02/19 11:10:30;;;;;;;11.27;6.10;;;;;;;15.78;26.39;99939.97;5070886;28;20111;-38
2022/02/19 11:12:56;;;;;;;14.30;6.70;;;;;;;15.66;26.64;99934.56;5070660;28;20028;-37
2022/02/19 11:15:26;;;;;;;13.90;6.57;;;;;;;16.48;26.31;99936.38;5070753;28;20017;-38
2022/02/19 11:17:51;;;;;;;11.52;6.22;;;;;;;15.93;26.85;99932.25;5070540;28;20032;-38
2022/02/19 11:20:18;;;;;;;12.93;6.40;;;;;;;15.87;26.98;99933.19;5070509;28;20512;-39
2022/02/19 11:22:44;;;;;;;10.98;5.97;;;;;;;16.60;26.00;99921.06;5070094;28;20029;-39
2022/02/19 11:25:11;;;;;;;10.70;5.50;;;;;;;16.52;26.60;99918.72;5070169;28;20472;-39
2022/02/19 11:27:40;;;;;;;10.43;5.85;;;;;;;16.04;26.56;99917.22;5070442;28;20020;-39
2022/02/19 11:30:07;;;;;;;9.95;4.53;;;;;;;15.83;27.73;99916.75;5068947;28;20128;-38
2022/02/19 11:32:37;;;;;;;9.38;5.30;;;;;;;16.64;27.14;99924.09;5069037;28;20476;-39